sensor_id;sensor_type;location;lat;lon;timestamp;P1;durP1;ratioP1;P2;durP2;ratioP2
41927;SDS011;27616;51.420;6.788;2023-09-30T00:02:22;9.57;;;2.03;;
41927;SDS011;27616;51.420;6.788;2023-09-30T00:04:47;6.68;;;2.22;;
41927;SDS011;27616;51.420;6.788;2023-09-30T00:07:13;9.18;;;2.70;;
41927;SDS011;27616;51.420;6.788;2023-09-30T00:09:39;8.13;;;2.38;;
41927;SDS011;27616;51.420;6.788;2023-09-30T00:12:05;8.52;;;2.47;;
41927;SDS011;27616;51.420;6.788;2023-09-30T00:14:31;10.30;;;2.47;;
41927;SDS011;27616;51.420;6.788;2023-09-30T00:16:57;7.57;;;2.95;;
41927;SDS011;27616;51.420;6.788;2023-09-30T00:19:23;6.50;;;2.50;;
41927;SDS011;27616;51.420;6.788;2023-09-30T00:21:48;11.88;;;2.90;;
41927;SDS011;27616;51.420;6.788;2023-09-30T00:24:14;7.22;;;2.40;;
41927;SDS011;27616;51.420;6.788;2023-09-30T00:26:40;10.02;;;2.60;;
41927;SDS011;27616;51.420;6.788;2023-09-30T00:29:05;10.23;;;2.33;;
41927;SDS011;27616;51.420;6.788;2023-09-30T00:31:31;9.90;;;3.08;;
41927;SDS011;27616;51.420;6.788;2023-09-30T00:33:57;7.72;;;2.45;;
41927;SDS011;27616;51.420;6.788;2023-09-30T00:36:23;13.93;;;2.92;;
41927;SDS011;27616;51.420;6.788;2023-09-30T00:38:48;10.10;;;2.90;;
41927;SDS011;27616;51.420;6.788;2023-09-30T00:41:14;9.38;;;3.13;;
41927;SDS011;27616;51.420;6.788;2023-09-30T00:43:40;9.55;;;3.22;;
41927;SDS011;27616;51.420;6.788;2023-09-30T00:48:36;10.40;;;2.95;;
41927;SDS011;27616;51.420;6.788;2023-09-30T00:51:02;8.48;;;2.72;;
41927;SDS011;27616;51.420;6.788;2023-09-30T00:53:28;10.55;;;3.22;;
41927;SDS011;27616;51.420;6.788;2023-09-30T00:55:55;7.72;;;2.90;;
41927;SDS011;27616;51.420;6.788;2023-09-30T00:58:21;10.55;;;3.28;;
41927;SDS011;27616;51.420;6.788;2023-09-30T01:00:52;11.20;;;3.45;;
41927;SDS011;27616;51.420;6.788;2023-09-30T01:03:18;10.30;;;3.55;;
41927;SDS011;27616;51.420;6.788;2023-09-30T01:05:45;10.57;;;2.75;;
41927;SDS011;27616;51.420;6.788;2023-09-30T01:08:10;12.02;;;3.63;;
41927;SDS011;27616;51.420;6.788;2023-09-30T01:10:36;10.90;;;3.05;;
41927;SDS011;27616;51.420;6.788;2023-09-30T01:13:02;10.52;;;2.80;;
41927;SDS011;27616;51.420;6.788;2023-09-30T01:15:28;7.88;;;3.05;;
41927;SDS011;27616;51.420;6.788;2023-09-30T01:17:54;12.25;;;3.38;;
41927;SDS011;27616;51.420;6.788;2023-09-30T01:20:20;6.93;;;2.53;;
41927;SDS011;27616;51.420;6.788;2023-09-30T01:22:48;10.10;;;3.07;;
41927;SDS011;27616;51.420;6.788;2023-09-30T01:25:14;12.52;;;3.92;;
41927;SDS011;27616;51.420;6.788;2023-09-30T01:27:40;8.18;;;3.42;;
41927;SDS011;27616;51.420;6.788;2023-09-30T01:30:06;11.65;;;3.85;;
41927;SDS011;27616;51.420;6.788;2023-09-30T01:32:36;8.98;;;2.67;;
41927;SDS011;27616;51.420;6.788;2023-09-30T01:35:02;7.82;;;2.63;;
41927;SDS011;27616;51.420;6.788;2023-09-30T01:37:28;7.93;;;2.78;;
41927;SDS011;27616;51.420;6.788;2023-09-30T01:39:54;9.45;;;3.40;;
41927;SDS011;27616;51.420;6.788;2023-09-30T01:42:20;9.18;;;2.95;;
41927;SDS011;27616;51.420;6.788;2023-09-30T01:44:46;11.05;;;3.00;;
41927;SDS011;27616;51.420;6.788;2023-09-30T01:47:11;11.30;;;3.17;;
41927;SDS011;27616;51.420;6.788;2023-09-30T01:49:37;11.77;;;3.40;;
41927;SDS011;27616;51.420;6.788;2023-09-30T01:52:03;9.20;;;3.10;;
41927;SDS011;27616;51.420;6.788;2023-09-30T01:54:29;10.95;;;3.17;;
41927;SDS011;27616;51.420;6.788;2023-09-30T01:56:54;9.45;;;3.80;;
41927;SDS011;27616;51.420;6.788;2023-09-30T01:59:20;14.20;;;3.63;;
41927;SDS011;27616;51.420;6.788;2023-09-30T02:01:46;11.18;;;3.70;;
41927;SDS011;27616;51.420;6.788;2023-09-30T02:04:12;11.68;;;3.45;;
41927;SDS011;27616;51.420;6.788;2023-09-30T02:06:40;7.72;;;3.08;;
41927;SDS011;27616;51.420;6.788;2023-09-30T02:09:08;12.07;;;3.70;;
41927;SDS011;27616;51.420;6.788;2023-09-30T02:11:35;12.70;;;4.15;;
41927;SDS011;27616;51.420;6.788;2023-09-30T02:14:02;13.20;;;3.58;;
41927;SDS011;27616;51.420;6.788;2023-09-30T02:16:27;8.60;;;2.92;;
41927;SDS011;27616;51.420;6.788;2023-09-30T02:18:55;12.18;;;3.42;;
41927;SDS011;27616;51.420;6.788;2023-09-30T02:21:21;7.63;;;2.90;;
41927;SDS011;27616;51.420;6.788;2023-09-30T02:23:49;9.53;;;3.63;;
41927;SDS011;27616;51.420;6.788;2023-09-30T02:26:16;7.43;;;2.90;;
41927;SDS011;27616;51.420;6.788;2023-09-30T02:28:42;11.95;;;3.00;;
41927;SDS011;27616;51.420;6.788;2023-09-30T02:31:08;7.22;;;3.10;;
41927;SDS011;27616;51.420;6.788;2023-09-30T02:33:34;8.70;;;3.35;;
41927;SDS011;27616;51.420;6.788;2023-09-30T02:36:06;9.80;;;3.35;;
41927;SDS011;27616;51.420;6.788;2023-09-30T02:38:33;7.45;;;2.90;;
41927;SDS011;27616;51.420;6.788;2023-09-30T02:41:01;11.50;;;3.80;;
41927;SDS011;27616;51.420;6.788;2023-09-30T02:43:27;12.05;;;3.40;;
41927;SDS011;27616;51.420;6.788;2023-09-30T02:45:55;8.05;;;3.33;;
41927;SDS011;27616;51.420;6.788;2023-09-30T02:48:20;9.43;;;2.80;;
41927;SDS011;27616;51.420;6.788;2023-09-30T02:50:46;9.20;;;3.72;;
41927;SDS011;27616;51.420;6.788;2023-09-30T02:53:12;9.55;;;3.55;;
41927;SDS011;27616;51.420;6.788;2023-09-30T02:55:38;12.25;;;2.92;;
41927;SDS011;27616;51.420;6.788;2023-09-30T02:58:04;8.52;;;3.00;;
41927;SDS011;27616;51.420;6.788;2023-09-30T03:00:30;7.47;;;3.22;;
41927;SDS011;27616;51.420;6.788;2023-09-30T03:02:59;7.13;;;3.03;;
41927;SDS011;27616;51.420;6.788;2023-09-30T03:05:27;11.18;;;2.90;;
41927;SDS011;27616;51.420;6.788;2023-09-30T03:07:55;6.47;;;2.55;;
41927;SDS011;27616;51.420;6.788;2023-09-30T03:10:21;11.18;;;3.15;;
41927;SDS011;27616;51.420;6.788;2023-09-30T03:12:49;9.73;;;2.97;;
41927;SDS011;27616;51.420;6.788;2023-09-30T03:15:15;14.45;;;4.07;;
41927;SDS011;27616;51.420;6.788;2023-09-30T03:17:41;8.48;;;3.00;;
41927;SDS011;27616;51.420;6.788;2023-09-30T03:20:08;12.20;;;3.23;;
41927;SDS011;27616;51.420;6.788;2023-09-30T03:22:40;7.68;;;3.13;;
41927;SDS011;27616;51.420;6.788;2023-09-30T03:25:07;8.03;;;3.10;;
41927;SDS011;27616;51.420;6.788;2023-09-30T03:27:35;11.03;;;3.70;;
41927;SDS011;27616;51.420;6.788;2023-09-30T03:30:02;9.70;;;2.88;;
41927;SDS011;27616;51.420;6.788;2023-09-30T03:32:30;7.83;;;2.73;;
41927;SDS011;27616;51.420;6.788;2023-09-30T03:34:58;9.83;;;3.10;;
41927;SDS011;27616;51.420;6.788;2023-09-30T03:37:26;12.18;;;3.63;;
41927;SDS011;27616;51.420;6.788;2023-09-30T03:39:55;9.23;;;3.13;;
41927;SDS011;27616;51.420;6.788;2023-09-30T03:42:21;12.93;;;3.42;;
41927;SDS011;27616;51.420;6.788;2023-09-30T03:44:46;10.13;;;3.83;;
41927;SDS011;27616;51.420;6.788;2023-09-30T03:47:14;10.07;;;3.53;;
41927;SDS011;27616;51.420;6.788;2023-09-30T03:49:44;11.00;;;3.07;;
41927;SDS011;27616;51.420;6.788;2023-09-30T03:52:10;8.23;;;3.37;;
41927;SDS011;27616;51.420;6.788;2023-09-30T03:54:36;8.67;;;3.37;;
41927;SDS011;27616;51.420;6.788;2023-09-30T03:57:02;8.27;;;3.60;;
41927;SDS011;27616;51.420;6.788;2023-09-30T03:59:29;11.20;;;3.90;;
41927;SDS011;27616;51.420;6.788;2023-09-30T04:01:55;8.77;;;3.47;;
41927;SDS011;27616;51.420;6.788;2023-09-30T04:04:22;10.57;;;3.27;;
41927;SDS011;27616;51.420;6.788;2023-09-30T04:06:49;8.90;;;3.67;;
41927;SDS011;27616;51.420;6.788;2023-09-30T04:09:16;13.20;;;3.80;;
41927;SDS011;27616;51.420;6.788;2023-09-30T04:11:42;9.33;;;3.40;;
41927;SDS011;27616;51.420;6.788;2023-09-30T04:14:08;12.13;;;3.90;;
41927;SDS011;27616;51.420;6.788;2023-09-30T04:16:34;10.60;;;3.33;;
41927;SDS011;27616;51.420;6.788;2023-09-30T04:19:02;12.73;;;3.97;;
41927;SDS011;27616;51.420;6.788;2023-09-30T04:21:28;11.57;;;3.77;;
41927;SDS011;27616;51.420;6.788;2023-09-30T04:23:55;12.03;;;3.53;;
41927;SDS011;27616;51.420;6.788;2023-09-30T04:26:21;11.97;;;3.50;;
41927;SDS011;27616;51.420;6.788;2023-09-30T04:28:47;9.50;;;3.77;;
41927;SDS011;27616;51.420;6.788;2023-09-30T04:31:12;12.23;;;4.30;;
41927;SDS011;27616;51.420;6.788;2023-09-30T04:33:38;12.67;;;3.47;;
41927;SDS011;27616;51.420;6.788;2023-09-30T04:36:05;12.47;;;3.87;;
41927;SDS011;27616;51.420;6.788;2023-09-30T04:41:00;11.00;;;4.07;;
41927;SDS011;27616;51.420;6.788;2023-09-30T04:43:25;12.73;;;4.03;;
41927;SDS011;27616;51.420;6.788;2023-09-30T04:45:54;11.60;;;4.43;;
41927;SDS011;27616;51.420;6.788;2023-09-30T04:48:22;14.90;;;3.73;;
41927;SDS011;27616;51.420;6.788;2023-09-30T04:50:48;10.70;;;3.57;;
41927;SDS011;27616;51.420;6.788;2023-09-30T04:53:15;9.43;;;4.00;;
41927;SDS011;27616;51.420;6.788;2023-09-30T04:55:42;9.60;;;3.70;;
41927;SDS011;27616;51.420;6.788;2023-09-30T04:58:08;14.30;;;3.60;;
41927;SDS011;27616;51.420;6.788;2023-09-30T05:00:34;10.00;;;3.77;;
41927;SDS011;27616;51.420;6.788;2023-09-30T05:03:00;15.10;;;4.80;;
41927;SDS011;27616;51.420;6.788;2023-09-30T05:05:26;12.27;;;5.57;;
41927;SDS011;27616;51.420;6.788;2023-09-30T05:07:52;12.00;;;4.60;;
41927;SDS011;27616;51.420;6.788;2023-09-30T05:10:17;10.97;;;4.10;;
41927;SDS011;27616;51.420;6.788;2023-09-30T05:12:44;11.03;;;3.67;;
41927;SDS011;27616;51.420;6.788;2023-09-30T05:15:13;11.88;;;3.85;;
41927;SDS011;27616;51.420;6.788;2023-09-30T05:17:41;10.80;;;3.47;;
41927;SDS011;27616;51.420;6.788;2023-09-30T05:20:09;13.13;;;3.93;;
41927;SDS011;27616;51.420;6.788;2023-09-30T05:22:37;11.00;;;4.23;;
41927;SDS011;27616;51.420;6.788;2023-09-30T05:25:04;15.70;;;4.47;;
41927;SDS011;27616;51.420;6.788;2023-09-30T05:27:30;10.57;;;3.77;;
41927;SDS011;27616;51.420;6.788;2023-09-30T05:29:55;11.97;;;4.07;;
41927;SDS011;27616;51.420;6.788;2023-09-30T05:32:21;12.80;;;4.53;;
41927;SDS011;27616;51.420;6.788;2023-09-30T05:34:47;13.67;;;4.23;;
41927;SDS011;27616;51.420;6.788;2023-09-30T05:37:13;13.60;;;3.83;;
41927;SDS011;27616;51.420;6.788;2023-09-30T05:39:39;13.30;;;4.10;;
41927;SDS011;27616;51.420;6.788;2023-09-30T05:42:05;11.37;;;4.23;;
41927;SDS011;27616;51.420;6.788;2023-09-30T05:44:32;14.30;;;4.43;;
41927;SDS011;27616;51.420;6.788;2023-09-30T05:46:57;11.50;;;4.30;;
41927;SDS011;27616;51.420;6.788;2023-09-30T05:49:25;12.90;;;4.60;;
41927;SDS011;27616;51.420;6.788;2023-09-30T05:51:50;13.63;;;4.07;;
41927;SDS011;27616;51.420;6.788;2023-09-30T05:54:16;13.43;;;4.23;;
41927;SDS011;27616;51.420;6.788;2023-09-30T05:56:42;14.13;;;4.20;;
41927;SDS011;27616;51.420;6.788;2023-09-30T05:59:08;10.63;;;4.20;;
41927;SDS011;27616;51.420;6.788;2023-09-30T06:01:34;11.97;;;4.20;;
41927;SDS011;27616;51.420;6.788;2023-09-30T06:04:01;13.67;;;5.57;;
41927;SDS011;27616;51.420;6.788;2023-09-30T06:06:27;11.97;;;4.10;;
41927;SDS011;27616;51.420;6.788;2023-09-30T06:08:56;19.13;;;5.47;;
41927;SDS011;27616;51.420;6.788;2023-09-30T06:11:25;13.70;;;4.55;;
41927;SDS011;27616;51.420;6.788;2023-09-30T06:13:54;13.93;;;5.43;;
41927;SDS011;27616;51.420;6.788;2023-09-30T06:16:20;15.57;;;4.83;;
41927;SDS011;27616;51.420;6.788;2023-09-30T06:18:45;13.47;;;4.63;;
41927;SDS011;27616;51.420;6.788;2023-09-30T06:21:12;14.73;;;4.20;;
41927;SDS011;27616;51.420;6.788;2023-09-30T06:23:40;17.00;;;4.67;;
41927;SDS011;27616;51.420;6.788;2023-09-30T06:26:05;14.53;;;5.37;;
41927;SDS011;27616;51.420;6.788;2023-09-30T06:28:31;13.33;;;4.07;;
41927;SDS011;27616;51.420;6.788;2023-09-30T06:30:59;12.50;;;4.73;;
41927;SDS011;27616;51.420;6.788;2023-09-30T06:33:25;13.23;;;4.50;;
41927;SDS011;27616;51.420;6.788;2023-09-30T06:38:20;16.17;;;4.53;;
41927;SDS011;27616;51.420;6.788;2023-09-30T06:40:46;13.80;;;4.77;;
41927;SDS011;27616;51.420;6.788;2023-09-30T06:43:15;15.70;;;5.17;;
41927;SDS011;27616;51.420;6.788;2023-09-30T06:45:41;13.40;;;4.65;;
41927;SDS011;27616;51.420;6.788;2023-09-30T06:48:08;13.47;;;5.20;;
41927;SDS011;27616;51.420;6.788;2023-09-30T06:50:47;12.45;;;4.80;;
41927;SDS011;27616;51.420;6.788;2023-09-30T06:53:17;14.77;;;4.40;;
41927;SDS011;27616;51.420;6.788;2023-09-30T06:55:44;14.00;;;5.13;;
41927;SDS011;27616;51.420;6.788;2023-09-30T06:58:10;14.07;;;5.93;;
41927;SDS011;27616;51.420;6.788;2023-09-30T07:00:37;13.80;;;5.37;;
41927;SDS011;27616;51.420;6.788;2023-09-30T07:03:03;12.50;;;4.67;;
41927;SDS011;27616;51.420;6.788;2023-09-30T07:05:29;16.03;;;4.70;;
41927;SDS011;27616;51.420;6.788;2023-09-30T07:07:55;14.90;;;5.43;;
41927;SDS011;27616;51.420;6.788;2023-09-30T07:10:20;13.70;;;5.85;;
41927;SDS011;27616;51.420;6.788;2023-09-30T07:12:46;17.23;;;5.38;;
41927;SDS011;27616;51.420;6.788;2023-09-30T07:15:12;15.63;;;5.57;;
41927;SDS011;27616;51.420;6.788;2023-09-30T07:17:39;12.50;;;5.07;;
41927;SDS011;27616;51.420;6.788;2023-09-30T07:20:05;16.23;;;5.45;;
41927;SDS011;27616;51.420;6.788;2023-09-30T07:22:32;12.88;;;5.53;;
41927;SDS011;27616;51.420;6.788;2023-09-30T07:24:58;14.90;;;5.80;;
41927;SDS011;27616;51.420;6.788;2023-09-30T07:27:24;16.17;;;5.85;;
41927;SDS011;27616;51.420;6.788;2023-09-30T07:29:50;16.50;;;6.43;;
41927;SDS011;27616;51.420;6.788;2023-09-30T07:32:16;13.18;;;5.43;;
41927;SDS011;27616;51.420;6.788;2023-09-30T07:34:41;17.60;;;6.50;;
41927;SDS011;27616;51.420;6.788;2023-09-30T07:37:07;15.90;;;6.55;;
41927;SDS011;27616;51.420;6.788;2023-09-30T07:39:33;17.30;;;6.75;;
41927;SDS011;27616;51.420;6.788;2023-09-30T07:42:00;14.00;;;5.72;;
41927;SDS011;27616;51.420;6.788;2023-09-30T07:44:26;15.93;;;6.10;;
41927;SDS011;27616;51.420;6.788;2023-09-30T07:46:52;15.68;;;6.20;;
41927;SDS011;27616;51.420;6.788;2023-09-30T07:49:18;17.20;;;6.82;;
41927;SDS011;27616;51.420;6.788;2023-09-30T07:51:44;17.77;;;6.45;;
41927;SDS011;27616;51.420;6.788;2023-09-30T07:54:11;15.32;;;7.05;;
41927;SDS011;27616;51.420;6.788;2023-09-30T07:56:37;18.27;;;6.53;;
41927;SDS011;27616;51.420;6.788;2023-09-30T07:59:03;20.60;;;7.70;;
41927;SDS011;27616;51.420;6.788;2023-09-30T08:01:30;24.00;;;9.02;;
41927;SDS011;27616;51.420;6.788;2023-09-30T08:03:56;34.03;;;17.17;;
41927;SDS011;27616;51.420;6.788;2023-09-30T08:06:22;17.63;;;7.65;;
41927;SDS011;27616;51.420;6.788;2023-09-30T08:08:48;17.30;;;6.47;;
41927;SDS011;27616;51.420;6.788;2023-09-30T08:11:14;11.65;;;6.15;;
41927;SDS011;27616;51.420;6.788;2023-09-30T08:13:40;20.98;;;7.13;;
41927;SDS011;27616;51.420;6.788;2023-09-30T08:16:06;17.65;;;6.95;;
41927;SDS011;27616;51.420;6.788;2023-09-30T08:18:32;15.60;;;6.75;;
41927;SDS011;27616;51.420;6.788;2023-09-30T08:20:57;14.75;;;6.82;;
41927;SDS011;27616;51.420;6.788;2023-09-30T08:23:23;18.48;;;6.72;;
41927;SDS011;27616;51.420;6.788;2023-09-30T08:25:49;16.67;;;7.05;;
41927;SDS011;27616;51.420;6.788;2023-09-30T08:28:14;13.80;;;6.68;;
41927;SDS011;27616;51.420;6.788;2023-09-30T08:30:40;18.27;;;7.20;;
41927;SDS011;27616;51.420;6.788;2023-09-30T08:33:06;20.33;;;7.57;;
41927;SDS011;27616;51.420;6.788;2023-09-30T08:35:36;17.90;;;7.32;;
41927;SDS011;27616;51.420;6.788;2023-09-30T08:38:02;16.70;;;7.18;;
41927;SDS011;27616;51.420;6.788;2023-09-30T08:40:29;26.58;;;10.23;;
41927;SDS011;27616;51.420;6.788;2023-09-30T08:42:54;18.20;;;7.70;;
41927;SDS011;27616;51.420;6.788;2023-09-30T08:45:20;22.05;;;7.15;;
41927;SDS011;27616;51.420;6.788;2023-09-30T08:47:46;16.63;;;7.30;;
41927;SDS011;27616;51.420;6.788;2023-09-30T08:50:12;16.92;;;7.57;;
41927;SDS011;27616;51.420;6.788;2023-09-30T08:52:42;16.00;;;6.85;;
41927;SDS011;27616;51.420;6.788;2023-09-30T08:55:10;16.58;;;6.85;;
41927;SDS011;27616;51.420;6.788;2023-09-30T08:57:37;15.52;;;5.97;;
41927;SDS011;27616;51.420;6.788;2023-09-30T09:00:07;15.90;;;6.40;;
41927;SDS011;27616;51.420;6.788;2023-09-30T09:02:37;14.40;;;6.22;;
41927;SDS011;27616;51.420;6.788;2023-09-30T09:05:03;17.58;;;7.03;;
41927;SDS011;27616;51.420;6.788;2023-09-30T09:07:29;13.38;;;6.40;;
41927;SDS011;27616;51.420;6.788;2023-09-30T09:12:36;13.50;;;5.05;;
41927;SDS011;27616;51.420;6.788;2023-09-30T09:15:04;11.35;;;4.90;;
41927;SDS011;27616;51.420;6.788;2023-09-30T09:17:41;14.23;;;6.13;;
41927;SDS011;27616;51.420;6.788;2023-09-30T09:20:09;12.00;;;5.22;;
41927;SDS011;27616;51.420;6.788;2023-09-30T09:22:55;14.82;;;5.65;;
41927;SDS011;27616;51.420;6.788;2023-09-30T09:25:23;12.43;;;5.07;;
41927;SDS011;27616;51.420;6.788;2023-09-30T09:27:49;10.18;;;5.10;;
41927;SDS011;27616;51.420;6.788;2023-09-30T09:30:16;11.25;;;4.78;;
41927;SDS011;27616;51.420;6.788;2023-09-30T09:32:52;11.73;;;4.72;;
41927;SDS011;27616;51.420;6.788;2023-09-30T09:35:31;11.25;;;4.80;;
41927;SDS011;27616;51.420;6.788;2023-09-30T09:40:32;11.00;;;4.63;;
41927;SDS011;27616;51.420;6.788;2023-09-30T09:42:59;9.50;;;3.72;;
41927;SDS011;27616;51.420;6.788;2023-09-30T09:45:27;9.98;;;3.75;;
41927;SDS011;27616;51.420;6.788;2023-09-30T09:47:55;11.80;;;4.53;;
41927;SDS011;27616;51.420;6.788;2023-09-30T09:50:22;8.30;;;4.07;;
41927;SDS011;27616;51.420;6.788;2023-09-30T09:52:49;11.13;;;3.58;;
41927;SDS011;27616;51.420;6.788;2023-09-30T09:55:16;8.00;;;3.42;;
41927;SDS011;27616;51.420;6.788;2023-09-30T09:57:43;6.70;;;3.05;;
41927;SDS011;27616;51.420;6.788;2023-09-30T10:00:11;10.18;;;3.67;;
41927;SDS011;27616;51.420;6.788;2023-09-30T10:02:41;8.80;;;3.42;;
41927;SDS011;27616;51.420;6.788;2023-09-30T10:05:07;6.95;;;3.17;;
41927;SDS011;27616;51.420;6.788;2023-09-30T10:07:35;6.22;;;3.30;;
41927;SDS011;27616;51.420;6.788;2023-09-30T10:10:06;8.98;;;3.22;;
41927;SDS011;27616;51.420;6.788;2023-09-30T10:12:39;6.63;;;2.70;;
41927;SDS011;27616;51.420;6.788;2023-09-30T10:18:02;12.75;;;4.32;;
41927;SDS011;27616;51.420;6.788;2023-09-30T10:20:41;9.75;;;3.70;;
41927;SDS011;27616;51.420;6.788;2023-09-30T10:23:27;12.60;;;4.47;;
41927;SDS011;27616;51.420;6.788;2023-09-30T10:28:45;11.68;;;4.60;;
41927;SDS011;27616;51.420;6.788;2023-09-30T10:31:17;10.82;;;3.75;;
41927;SDS011;27616;51.420;6.788;2023-09-30T10:36:28;8.63;;;3.17;;
41927;SDS011;27616;51.420;6.788;2023-09-30T10:38:55;8.73;;;3.10;;
41927;SDS011;27616;51.420;6.788;2023-09-30T10:46:58;7.85;;;2.75;;
41927;SDS011;27616;51.420;6.788;2023-09-30T10:51:51;8.18;;;2.28;;
41927;SDS011;27616;51.420;6.788;2023-09-30T10:54:24;23.85;;;10.80;;
41927;SDS011;27616;51.420;6.788;2023-09-30T10:56:50;21.48;;;10.93;;
41927;SDS011;27616;51.420;6.788;2023-09-30T10:59:23;14.77;;;7.38;;
41927;SDS011;27616;51.420;6.788;2023-09-30T11:01:50;10.75;;;4.40;;
41927;SDS011;27616;51.420;6.788;2023-09-30T11:04:16;8.90;;;3.03;;
41927;SDS011;27616;51.420;6.788;2023-09-30T11:06:43;10.10;;;3.25;;
41927;SDS011;27616;51.420;6.788;2023-09-30T11:09:14;10.93;;;3.70;;
41927;SDS011;27616;51.420;6.788;2023-09-30T11:11:45;6.78;;;3.08;;
41927;SDS011;27616;51.420;6.788;2023-09-30T11:16:55;8.07;;;2.65;;
41927;SDS011;27616;51.420;6.788;2023-09-30T11:19:22;6.85;;;3.42;;
41927;SDS011;27616;51.420;6.788;2023-09-30T11:21:49;7.22;;;3.20;;
41927;SDS011;27616;51.420;6.788;2023-09-30T11:24:20;8.27;;;2.80;;
41927;SDS011;27616;51.420;6.788;2023-09-30T11:26:46;4.78;;;2.28;;
41927;SDS011;27616;51.420;6.788;2023-09-30T11:29:13;6.35;;;1.73;;
41927;SDS011;27616;51.420;6.788;2023-09-30T11:31:42;5.38;;;1.80;;
41927;SDS011;27616;51.420;6.788;2023-09-30T11:34:13;6.50;;;1.85;;
41927;SDS011;27616;51.420;6.788;2023-09-30T11:36:41;7.25;;;2.03;;
41927;SDS011;27616;51.420;6.788;2023-09-30T11:39:21;5.57;;;2.97;;
41927;SDS011;27616;51.420;6.788;2023-09-30T11:41:54;5.30;;;1.90;;
41927;SDS011;27616;51.420;6.788;2023-09-30T11:44:21;5.20;;;2.03;;
41927;SDS011;27616;51.420;6.788;2023-09-30T11:46:48;10.35;;;2.67;;
41927;SDS011;27616;51.420;6.788;2023-09-30T11:51:54;7.70;;;2.85;;
41927;SDS011;27616;51.420;6.788;2023-09-30T11:54:45;6.05;;;2.38;;
41927;SDS011;27616;51.420;6.788;2023-09-30T11:57:17;6.90;;;2.30;;
41927;SDS011;27616;51.420;6.788;2023-09-30T11:59:46;5.65;;;2.10;;
41927;SDS011;27616;51.420;6.788;2023-09-30T12:02:13;11.15;;;2.72;;
41927;SDS011;27616;51.420;6.788;2023-09-30T12:04:40;7.40;;;2.40;;
41927;SDS011;27616;51.420;6.788;2023-09-30T12:07:07;7.97;;;2.67;;
41927;SDS011;27616;51.420;6.788;2023-09-30T12:09:33;5.45;;;2.22;;
41927;SDS011;27616;51.420;6.788;2023-09-30T12:12:02;5.53;;;2.40;;
41927;SDS011;27616;51.420;6.788;2023-09-30T12:14:29;5.45;;;1.98;;
41927;SDS011;27616;51.420;6.788;2023-09-30T12:16:56;8.63;;;2.50;;
41927;SDS011;27616;51.420;6.788;2023-09-30T12:19:22;7.25;;;2.63;;
41927;SDS011;27616;51.420;6.788;2023-09-30T12:21:47;6.47;;;2.40;;
41927;SDS011;27616;51.420;6.788;2023-09-30T12:24:14;5.70;;;2.22;;
41927;SDS011;27616;51.420;6.788;2023-09-30T12:26:46;7.90;;;2.58;;
41927;SDS011;27616;51.420;6.788;2023-09-30T12:29:16;9.45;;;2.42;;
41927;SDS011;27616;51.420;6.788;2023-09-30T12:31:47;7.10;;;2.10;;
41927;SDS011;27616;51.420;6.788;2023-09-30T12:34:13;7.13;;;2.33;;
41927;SDS011;27616;51.420;6.788;2023-09-30T12:36:39;6.38;;;2.30;;
41927;SDS011;27616;51.420;6.788;2023-09-30T12:39:06;6.32;;;2.50;;
41927;SDS011;27616;51.420;6.788;2023-09-30T12:44:05;7.38;;;2.42;;
41927;SDS011;27616;51.420;6.788;2023-09-30T12:46:32;5.85;;;2.28;;
41927;SDS011;27616;51.420;6.788;2023-09-30T12:49:01;8.23;;;2.47;;
41927;SDS011;27616;51.420;6.788;2023-09-30T12:51:27;5.25;;;2.05;;
41927;SDS011;27616;51.420;6.788;2023-09-30T12:53:53;7.65;;;2.10;;
41927;SDS011;27616;51.420;6.788;2023-09-30T12:56:18;4.30;;;2.03;;
41927;SDS011;27616;51.420;6.788;2023-09-30T12:58:44;5.22;;;2.15;;
41927;SDS011;27616;51.420;6.788;2023-09-30T13:01:10;6.05;;;1.77;;
41927;SDS011;27616;51.420;6.788;2023-09-30T13:03:36;5.50;;;1.85;;
41927;SDS011;27616;51.420;6.788;2023-09-30T13:06:02;7.40;;;1.98;;
41927;SDS011;27616;51.420;6.788;2023-09-30T13:08:28;5.55;;;1.75;;
41927;SDS011;27616;51.420;6.788;2023-09-30T13:10:59;4.55;;;1.65;;
41927;SDS011;27616;51.420;6.788;2023-09-30T13:13:28;4.65;;;1.33;;
41927;SDS011;27616;51.420;6.788;2023-09-30T13:15:56;6.53;;;1.77;;
41927;SDS011;27616;51.420;6.788;2023-09-30T13:18:22;6.13;;;1.38;;
41927;SDS011;27616;51.420;6.788;2023-09-30T13:20:48;5.70;;;1.48;;
41927;SDS011;27616;51.420;6.788;2023-09-30T13:23:14;4.25;;;1.73;;
41927;SDS011;27616;51.420;6.788;2023-09-30T13:25:39;3.80;;;1.50;;
41927;SDS011;27616;51.420;6.788;2023-09-30T13:28:05;4.80;;;1.55;;
41927;SDS011;27616;51.420;6.788;2023-09-30T13:30:30;6.07;;;2.05;;
41927;SDS011;27616;51.420;6.788;2023-09-30T13:32:57;6.90;;;1.92;;
41927;SDS011;27616;51.420;6.788;2023-09-30T13:35:22;5.72;;;1.58;;
41927;SDS011;27616;51.420;6.788;2023-09-30T13:37:48;4.50;;;1.77;;
41927;SDS011;27616;51.420;6.788;2023-09-30T13:40:14;4.55;;;1.80;;
41927;SDS011;27616;51.420;6.788;2023-09-30T13:42:39;4.85;;;2.05;;
41927;SDS011;27616;51.420;6.788;2023-09-30T13:45:05;5.70;;;2.45;;
41927;SDS011;27616;51.420;6.788;2023-09-30T13:47:32;5.75;;;1.90;;
41927;SDS011;27616;51.420;6.788;2023-09-30T13:49:58;8.00;;;2.20;;
41927;SDS011;27616;51.420;6.788;2023-09-30T13:52:23;7.50;;;2.22;;
41927;SDS011;27616;51.420;6.788;2023-09-30T13:54:49;5.22;;;2.13;;
41927;SDS011;27616;51.420;6.788;2023-09-30T13:57:14;4.90;;;1.88;;
41927;SDS011;27616;51.420;6.788;2023-09-30T13:59:40;5.07;;;2.00;;
41927;SDS011;27616;51.420;6.788;2023-09-30T14:02:07;3.85;;;1.80;;
41927;SDS011;27616;51.420;6.788;2023-09-30T14:04:33;4.95;;;1.52;;
41927;SDS011;27616;51.420;6.788;2023-09-30T14:07:00;5.78;;;2.05;;
41927;SDS011;27616;51.420;6.788;2023-09-30T14:09:27;3.85;;;1.90;;
41927;SDS011;27616;51.420;6.788;2023-09-30T14:11:53;4.30;;;1.77;;
41927;SDS011;27616;51.420;6.788;2023-09-30T14:14:20;7.75;;;2.25;;
41927;SDS011;27616;51.420;6.788;2023-09-30T14:16:46;5.03;;;2.03;;
41927;SDS011;27616;51.420;6.788;2023-09-30T14:19:12;7.88;;;2.55;;
41927;SDS011;27616;51.420;6.788;2023-09-30T14:21:39;7.68;;;2.33;;
41927;SDS011;27616;51.420;6.788;2023-09-30T14:24:07;7.00;;;2.65;;
41927;SDS011;27616;51.420;6.788;2023-09-30T14:26:33;9.02;;;2.40;;
41927;SDS011;27616;51.420;6.788;2023-09-30T14:28:59;4.90;;;2.03;;
41927;SDS011;27616;51.420;6.788;2023-09-30T14:31:25;4.95;;;2.50;;
41927;SDS011;27616;51.420;6.788;2023-09-30T14:33:51;3.90;;;1.85;;
41927;SDS011;27616;51.420;6.788;2023-09-30T14:36:17;4.20;;;1.60;;
41927;SDS011;27616;51.420;6.788;2023-09-30T14:38:44;6.03;;;2.13;;
41927;SDS011;27616;51.420;6.788;2023-09-30T14:41:10;4.63;;;1.70;;
41927;SDS011;27616;51.420;6.788;2023-09-30T14:43:37;5.47;;;2.10;;
41927;SDS011;27616;51.420;6.788;2023-09-30T14:46:03;4.32;;;1.75;;
41927;SDS011;27616;51.420;6.788;2023-09-30T14:48:29;6.80;;;2.78;;
41927;SDS011;27616;51.420;6.788;2023-09-30T14:50:55;5.70;;;2.00;;
41927;SDS011;27616;51.420;6.788;2023-09-30T14:53:22;5.88;;;1.70;;
41927;SDS011;27616;51.420;6.788;2023-09-30T14:55:48;5.15;;;1.70;;
41927;SDS011;27616;51.420;6.788;2023-09-30T14:58:13;4.15;;;1.42;;
41927;SDS011;27616;51.420;6.788;2023-09-30T15:00:39;6.93;;;1.70;;
41927;SDS011;27616;51.420;6.788;2023-09-30T15:03:05;3.63;;;1.60;;
41927;SDS011;27616;51.420;6.788;2023-09-30T15:05:31;5.45;;;2.03;;
41927;SDS011;27616;51.420;6.788;2023-09-30T15:07:57;3.92;;;1.83;;
41927;SDS011;27616;51.420;6.788;2023-09-30T15:10:24;4.53;;;1.73;;
41927;SDS011;27616;51.420;6.788;2023-09-30T15:12:50;5.28;;;2.22;;
41927;SDS011;27616;51.420;6.788;2023-09-30T15:15:16;10.65;;;4.70;;
41927;SDS011;27616;51.420;6.788;2023-09-30T15:17:41;8.23;;;3.22;;